Time;durP1;ratioP1;P1;durP2;ratioP2;P2;SDS_P1;SDS_P2;PMS_P1;PMS_P2;Temp;Humidity;BMP_temperature;BMP_pressure;BME280_temperature;BME280_humidity;BME280_pressure;Samples;Min_cycle;Max_cycle;Signal;HPM_P1;HPM_P2
2021/08/12 00:02:21;;;;;;;6.18;5.55;;;;;;;18.26;70.43;99263.00;2618066;54;20130;-73
2021/08/12 00:04:51;;;;;;;11.32;6.68;;;;;;;18.18;70.83;99263.34;2625362;54;20298;-72
2021/08/12 00:07:21;;;;;;;7.85;5.35;;;;;;;18.19;70.92;99262.28;2618239;54;20027;-72
2021/08/12 00:09:51;;;;;;;6.70;5.90;;;;;;;18.17;70.63;99269.75;2617949;54;20566;-73
2021/08/12 00:12:22;;;;;;;7.93;5.88;;;;;;;18.21;70.64;99269.06;2618225;54;20038;-74
2021/08/12 00:14:51;;;;;;;6.65;5.55;;;;;;;18.19;71.01;99267.66;2618891;54;20038;-72
2021/08/12 00:17:21;;;;;;;9.85;5.55;;;;;;;18.16;70.54;99268.09;2618342;54;20043;-73
2021/08/12 00:19:51;;;;;;;6.68;5.05;;;;;;;18.05;70.96;99265.19;2618801;54;20037;-73
2021/08/12 00:22:20;;;;;;;8.20;5.60;;;;;;;18.02;71.46;99262.97;2618664;54;20070;-73
2021/08/12 00:24:50;;;;;;;7.20;5.85;;;;;;;17.95;71.40;99254.22;2619084;54;20042;-72
2021/08/12 00:27:20;;;;;;;8.70;5.50;;;;;;;17.91;71.36;99258.41;2619085;39;20458;-73
2021/08/12 00:29:51;;;;;;;7.22;5.50;;;;;;;17.86;71.96;99257.47;2618212;47;20541;-73
2021/08/12 00:32:20;;;;;;;7.32;5.53;;;;;;;17.79;71.63;99258.34;2618353;54;20030;-73
2021/08/12 00:34:51;;;;;;;7.70;5.40;;;;;;;17.71;72.09;99255.97;2618156;54;20554;-73
2021/08/12 00:37:20;;;;;;;9.38;5.95;;;;;;;17.73;72.32;99256.59;2617851;54;20041;-72
2021/08/12 00:39:50;;;;;;;7.07;5.43;;;;;;;17.72;72.45;99257.63;2618282;54;20046;-74
2021/08/12 00:42:20;;;;;;;7.35;5.10;;;;;;;17.79;72.40;99257.56;2619230;54;20136;-72
2021/08/12 00:44:51;;;;;;;7.45;5.55;;;;;;;17.78;72.12;99248.72;2618947;54;20031;-72
2021/08/12 00:47:21;;;;;;;8.45;5.80;;;;;;;17.93;71.53;99258.19;2618968;47;20050;-73
2021/08/12 00:49:50;;;;;;;6.32;5.05;;;;;;;17.99;71.52;99259.94;2620599;54;20037;-73
2021/08/12 00:52:21;;;;;;;8.45;5.32;;;;;;;17.99;71.33;99263.41;2619496;54;20130;-74
2021/08/12 00:54:54;;;;;;;7.18;5.57;;;;;;;17.86;71.06;99262.81;2620367;39;20449;-73
2021/08/12 00:57:25;;;;;;;7.43;5.40;;;;;;;17.73;71.44;99261.94;2619703;54;20049;-73
2021/08/12 00:59:56;;;;;;;10.48;5.80;;;;;;;17.71;71.96;99261.31;2620231;47;20031;-73
2021/08/12 01:02:26;;;;;;;7.22;5.53;;;;;;;17.79;71.60;99258.34;2621355;39;20449;-74
2021/08/12 01:04:56;;;;;;;9.85;5.72;;;;;;;17.93;71.58;99252.84;2620137;54;20034;-74
2021/08/12 01:07:34;;;;;;;5.40;4.90;;;;;;;17.95;70.89;99261.44;2620599;54;20023;-73
2021/08/12 01:10:12;;;;;;;7.55;5.50;;;;;;;17.75;71.54;99261.72;2620463;46;20027;-74
2021/08/12 01:12:49;;;;;;;6.78;5.60;;;;;;;17.63;71.98;99267.00;2621183;47;20073;-73
2021/08/12 01:15:27;;;;;;;6.38;5.15;;;;;;;17.51;71.86;99266.13;2620571;47;20046;-73
2021/08/12 01:18:01;;;;;;;7.20;5.43;;;;;;;17.42;72.27;99268.31;2621020;54;20081;-73
2021/08/12 01:20:54;;;;;;;9.73;5.50;;;;;;;17.36;72.77;99260.41;2620780;47;20662;-73
2021/08/12 01:23:26;;;;;;;9.60;6.20;;;;;;;17.29;72.76;99261.28;2620363;46;20042;-74
2021/08/12 01:25:57;;;;;;;5.35;4.55;;;;;;;17.19;72.88;99255.66;2620307;47;20031;-74
2021/08/12 01:28:31;;;;;;;7.95;6.63;;;;;;;17.19;72.91;99254.84;2619614;54;20037;-72
2021/08/12 01:31:18;;;;;;;9.15;6.07;;;;;;;17.22;73.29;99257.06;2620329;54;20023;-72
2021/08/12 01:33:57;;;;;;;8.98;5.50;;;;;;;17.24;73.09;99255.00;2619665;39;20425;-73
2021/08/12 01:36:30;;;;;;;6.65;5.43;;;;;;;17.23;73.08;99251.50;2618142;54;20033;-73
2021/08/12 01:39:02;;;;;;;6.10;5.45;;;;;;;17.19;72.54;99257.53;2619051;54;20045;-74
2021/08/12 01:41:32;;;;;;;6.82;5.45;;;;;;;17.14;72.62;99260.84;2618746;54;20041;-75
2021/08/12 01:44:03;;;;;;;10.35;5.07;;;;;;;17.09;73.13;99258.84;2618520;51;20038;-74
2021/08/12 01:46:35;;;;;;;7.65;5.53;;;;;;;17.09;72.67;99260.72;2618179;54;20026;-73
2021/08/12 01:49:06;;;;;;;10.00;5.57;;;;;;;17.13;72.81;99258.41;2620214;54;20038;-74
2021/08/12 01:51:40;;;;;;;6.53;5.32;;;;;;;17.08;72.51;99259.91;2627860;31;20537;-73
2021/08/12 01:54:11;;;;;;;6.47;4.78;;;;;;;17.03;73.17;99262.44;2623677;54;20102;-73
2021/08/12 01:56:45;;;;;;;7.97;5.65;;;;;;;17.04;73.34;99255.22;2624048;47;20026;-74
2021/08/12 01:59:18;;;;;;;9.45;5.88;;;;;;;17.02;72.90;99246.59;2623155;54;20022;-74
2021/08/12 02:01:49;;;;;;;7.55;5.40;;;;;;;17.00;72.93;99251.38;2619517;39;20493;-73
2021/08/12 02:04:20;;;;;;;8.75;5.30;;;;;;;16.97;73.00;99254.47;2618846;47;20062;-74
2021/08/12 02:06:53;;;;;;;7.07;5.15;;;;;;;16.93;72.94;99246.09;2618348;47;20041;-73
2021/08/12 02:09:25;;;;;;;7.28;5.07;;;;;;;16.95;73.53;99256.56;2618144;47;20042;-73
2021/08/12 02:11:54;;;;;;;7.75;5.28;;;;;;;16.84;72.96;99250.91;2618551;54;20034;-73
2021/08/12 02:14:24;;;;;;;6.28;5.65;;;;;;;16.75;73.53;99248.78;2624641;54;20046;-73
2021/08/12 02:16:54;;;;;;;5.57;4.80;;;;;;;16.73;73.56;99253.50;2624350;54;20023;-73
2021/08/12 02:19:24;;;;;;;8.38;4.90;;;;;;;16.85;73.38;99249.06;2623313;47;20034;-73
2021/08/12 02:22:03;;;;;;;9.00;5.25;;;;;;;16.93;73.23;99243.44;2619105;54;20027;-72
2021/08/12 02:24:39;;;;;;;8.27;5.60;;;;;;;16.89;73.34;99242.25;2618467;47;20034;-73
2021/08/12 02:27:13;;;;;;;7.30;5.32;;;;;;;16.83;73.37;99243.13;2617734;54;20038;-72
2021/08/12 02:29:44;;;;;;;6.53;4.90;;;;;;;16.85;73.35;99235.72;2618409;54;20534;-73
2021/08/12 02:32:17;;;;;;;6.35;5.35;;;;;;;16.87;73.02;99233.66;2618207;54;20026;-73
2021/08/12 02:34:47;;;;;;;5.60;5.00;;;;;;;16.94;73.36;99233.56;2617868;54;20031;-74
2021/08/12 02:37:21;;;;;;;7.75;5.45;;;;;;;16.90;72.96;99245.72;2618296;54;20033;-73
2021/08/12 02:39:52;;;;;;;9.60;6.00;;;;;;;16.84;72.91;99240.25;2618464;39;20421;-72
2021/08/12 02:42:22;;;;;;;6.95;5.43;;;;;;;16.82;73.26;99239.66;2617611;54;20069;-73
2021/08/12 02:44:54;;;;;;;6.93;5.70;;;;;;;16.93;72.82;99235.41;2618593;39;20434;-74
2021/08/12 02:47:25;;;;;;;8.82;5.63;;;;;;;16.95;72.98;99233.34;2617984;54;20034;-73
2021/08/12 02:49:58;;;;;;;7.78;5.18;;;;;;;16.87;72.71;99230.16;2617593;54;20548;-74
2021/08/12 02:52:29;;;;;;;7.57;5.18;;;;;;;16.95;72.27;99233.34;2618181;54;20057;-73
2021/08/12 02:54:59;;;;;;;6.90;5.72;;;;;;;16.96;72.35;99234.97;2618265;54;20123;-73
2021/08/12 02:57:29;;;;;;;9.32;5.82;;;;;;;16.80;72.62;99233.72;2617391;54;20031;-73
2021/08/12 02:59:59;;;;;;;7.78;6.07;;;;;;;16.75;72.38;99241.56;2617593;54;20022;-73
2021/08/12 03:02:30;;;;;;;6.22;5.57;;;;;;;16.75;72.80;99236.25;2617987;54;20058;-72
2021/08/12 03:05:00;;;;;;;7.57;6.15;;;;;;;16.62;72.65;99225.69;2618329;54;20034;-73
2021/08/12 03:07:34;;;;;;;7.10;5.78;;;;;;;16.49;72.96;99225.78;2617985;54;20039;-73
2021/08/12 03:10:04;;;;;;;8.20;5.72;;;;;;;16.38;73.48;99226.53;2618206;54;20155;-73
2021/08/12 03:12:34;;;;;;;7.78;6.15;;;;;;;16.34;73.94;99226.16;2617604;54;20018;-73
2021/08/12 03:15:04;;;;;;;7.80;5.88;;;;;;;16.26;74.34;99227.25;2618134;54;20022;-73
2021/08/12 03:17:35;;;;;;;7.30;5.38;;;;;;;16.26;74.33;99229.91;2617484;54;20171;-73
2021/08/12 03:20:05;;;;;;;7.88;5.60;;;;;;;16.23;74.26;99226.88;2618085;54;20508;-73
2021/08/12 03:22:37;;;;;;;9.13;5.43;;;;;;;16.20;74.43;99217.44;2617716;54;20487;-73
2021/08/12 03:25:07;;;;;;;7.80;5.85;;;;;;;16.21;74.25;99229.75;2618273;54;20027;-74
2021/08/12 03:27:40;;;;;;;8.50;5.28;;;;;;;16.26;74.53;99237.09;2617546;51;20054;-73
2021/08/12 03:30:10;;;;;;;9.85;6.18;;;;;;;16.27;73.99;99234.22;2618314;54;20525;-74
2021/08/12 03:32:40;;;;;;;7.53;5.53;;;;;;;16.20;74.16;99236.09;2618823;39;20445;-73
2021/08/12 03:35:11;;;;;;;6.95;5.45;;;;;;;16.14;74.44;99234.31;2617305;54;20022;-74
2021/08/12 03:37:42;;;;;;;7.55;5.32;;;;;;;16.15;74.15;99237.81;2617362;47;20038;-72
2021/08/12 03:40:13;;;;;;;8.60;5.50;;;;;;;16.18;74.20;99240.06;2617549;48;20030;-73
2021/08/12 03:42:43;;;;;;;6.95;5.90;;;;;;;16.13;74.15;99238.03;2618433;54;20631;-73
2021/08/12 03:45:13;;;;;;;7.65;5.95;;;;;;;16.07;74.58;99244.22;2619117;54;20027;-73
2021/08/12 03:47:42;;;;;;;7.70;5.63;;;;;;;16.00;74.45;99248.78;2618741;54;20031;-73
2021/08/12 03:50:12;;;;;;;9.07;5.18;;;;;;;15.95;74.67;99246.78;2619133;54;20026;-73
2021/08/12 03:52:43;;;;;;;8.10;5.40;;;;;;;15.91;74.96;99253.56;2618576;39;20441;-73
2021/08/12 03:55:13;;;;;;;8.55;5.28;;;;;;;15.93;74.73;99251.53;2617958;47;20029;-73
2021/08/12 03:57:44;;;;;;;8.05;6.32;;;;;;;15.91;74.65;99240.25;2617957;54;20554;-73
2021/08/12 04:00:16;;;;;;;8.55;5.78;;;;;;;15.89;74.56;99239.66;2618533;39;20438;-73
2021/08/12 04:02:50;;;;;;;7.28;6.05;;;;;;;15.85;74.70;99255.25;2618678;39;20430;-73
2021/08/12 04:05:21;;;;;;;12.02;7.65;;;;;;;15.88;74.78;99251.34;2618681;54;20031;-73
2021/08/12 04:07:52;;;;;;;8.95;6.32;;;;;;;15.87;75.18;99241.72;2617991;54;20041;-72
2021/08/12 04:10:22;;;;;;;8.43;6.22;;;;;;;15.87;74.92;99240.88;2618226;47;20041;-73
2021/08/12 04:12:53;;;;;;;9.10;6.45;;;;;;;15.92;74.71;99241.06;2618277;54;20023;-73
2021/08/12 04:15:23;;;;;;;7.18;5.95;;;;;;;15.91;74.80;99252.75;2618062;47;20026;-72
2021/08/12 04:17:52;;;;;;;7.35;5.97;;;;;;;15.87;74.62;99251.56;2617215;54;20042;-73
2021/08/12 04:20:22;;;;;;;6.97;5.82;;;;;;;15.84;74.45;99253.63;2617920;54;20061;-73
2021/08/12 04:22:53;;;;;;;9.30;5.90;;;;;;;15.80;75.04;99260.44;2618735;54;20050;-72
2021/08/12 04:25:23;;;;;;;8.15;5.95;;;;;;;15.76;75.09;99267.22;2618206;47;20022;-72
2021/08/12 04:27:53;;;;;;;8.57;5.88;;;;;;;15.83;74.96;99267.16;2617880;47;20042;-73
2021/08/12 04:30:24;;;;;;;6.50;4.97;;;;;;;15.89;74.40;99273.50;2618082;50;20542;-73
2021/08/12 04:32:54;;;;;;;6.28;5.10;;;;;;;15.95;74.23;99272.63;2619165;39;20427;-73
2021/08/12 04:35:23;;;;;;;6.97;5.15;;;;;;;15.97;74.31;99259.91;2617841;47;20030;-73
2021/08/12 04:37:55;;;;;;;7.78;6.30;;;;;;;15.99;73.98;99260.50;2617964;54;20118;-72
2021/08/12 04:40:25;;;;;;;9.02;5.80;;;;;;;15.98;73.91;99257.00;2618147;39;20453;-73
2021/08/12 04:42:55;;;;;;;6.97;6.10;;;;;;;15.94;73.77;99257.66;2617789;47;20046;-73
2021/08/12 04:45:27;;;;;;;6.38;5.78;;;;;;;15.95;74.60;99256.63;2618005;47;20030;-72
2021/08/12 04:48:01;;;;;;;8.73;6.03;;;;;;;15.99;74.37;99255.16;2617820;54;20031;-72
2021/08/12 04:50:34;;;;;;;9.00;6.53;;;;;;;16.05;74.15;99262.31;2618058;54;20022;-73
2021/08/12 04:53:08;;;;;;;9.65;7.32;;;;;;;16.13;73.85;99256.72;2617859;46;20053;-73
2021/08/12 04:55:38;;;;;;;8.65;7.30;;;;;;;16.17;73.60;99259.75;2618373;54;20061;-73
2021/08/12 04:58:08;;;;;;;10.82;7.03;;;;;;;16.25;73.73;99264.81;2618225;39;20557;-73
2021/08/12 05:00:37;;;;;;;9.25;7.03;;;;;;;16.34;73.28;99255.50;2618396;39;20426;-73
2021/08/12 05:03:08;;;;;;;8.68;6.20;;;;;;;16.41;72.89;99255.44;2618429;54;20621;-73
2021/08/12 05:05:38;;;;;;;6.60;5.35;;;;;;;16.42;72.81;99254.41;2617916;51;20026;-73
2021/08/12 05:08:10;;;;;;;8.07;5.82;;;;;;;16.45;72.75;99260.13;2617770;47;20633;-72
2021/08/12 05:10:40;;;;;;;8.73;6.70;;;;;;;16.44;72.74;99258.47;2617800;54;20045;-73
2021/08/12 05:13:11;;;;;;;10.75;6.10;;;;;;;16.44;72.84;99257.66;2617587;54;20546;-73
2021/08/12 05:15:40;;;;;;;7.82;5.60;;;;;;;16.51;72.77;99261.09;2617675;54;20560;-73
2021/08/12 05:18:11;;;;;;;8.60;5.63;;;;;;;16.58;72.63;99261.84;2617844;47;20030;-72
2021/08/12 05:20:42;;;;;;;8.77;5.32;;;;;;;16.71;72.20;99260.91;2617046;54;20038;-72
2021/08/12 05:23:15;;;;;;;7.85;5.75;;;;;;;16.77;72.06;99265.38;2617874;47;20041;-73
2021/08/12 05:25:46;;;;;;;8.73;5.53;;;;;;;16.77;71.65;99270.72;2618027;54;20026;-72
2021/08/12 05:28:16;;;;;;;7.15;5.60;;;;;;;16.78;71.52;99278.53;2617743;54;20035;-73
2021/08/12 05:30:46;;;;;;;11.27;6.28;;;;;;;16.95;71.70;99268.06;2618204;47;20151;-73
2021/08/12 05:33:16;;;;;;;9.63;5.40;;;;;;;17.06;70.85;99274.50;2622463;54;20034;-73
2021/08/12 05:35:45;;;;;;;8.13;5.90;;;;;;;17.18;70.96;99275.38;2621321;54;20053;-73
2021/08/12 05:38:17;;;;;;;10.20;6.50;;;;;;;17.26;70.65;99274.28;2619025;39;20430;-73
2021/08/12 05:40:47;;;;;;;7.68;5.80;;;;;;;17.37;69.90;99272.72;2616942;47;20043;-73
2021/08/12 05:43:16;;;;;;;12.80;9.20;;;;;;;17.50;69.93;99267.19;2616934;47;20043;-73
2021/08/12 05:45:48;;;;;;;14.27;7.40;;;;;;;17.64;69.91;99274.00;2616886;47;20577;-73
2021/08/12 05:48:20;;;;;;;6.88;5.60;;;;;;;17.61;69.12;99265.59;2616969;47;20578;-73
2021/08/12 05:50:50;;;;;;;10.65;5.57;;;;;;;17.67;69.46;99268.16;2622813;54;20027;-73
2021/08/12 05:53:23;;;;;;;10.30;5.68;;;;;;;17.74;69.67;99265.41;2626049;39;20414;-73
2021/08/12 05:55:52;;;;;;;9.07;5.15;;;;;;;17.68;69.13;99264.47;2626105;39;20700;-74
2021/08/12 05:58:22;;;;;;;11.02;6.70;;;;;;;17.80;69.40;99269.91;2624591;47;20030;-73
2021/08/12 06:00:52;;;;;;;8.23;5.47;;;;;;;17.87;68.77;99272.47;2624439;51;20518;-73
2021/08/12 06:03:21;;;;;;;8.05;5.72;;;;;;;17.88;68.37;99266.91;2624045;54;20550;-73
2021/08/12 06:05:57;;;;;;;6.32;5.68;;;;;;;17.89;68.62;99263.19;2625053;54;20022;-73
2021/08/12 06:08:28;;;;;;;9.80;7.30;;;;;;;17.89;68.69;99262.38;2623921;47;20038;-72
2021/08/12 06:10:59;;;;;;;11.73;8.40;;;;;;;17.91;68.63;99263.75;2624772;31;20543;-73
2021/08/12 06:13:29;;;;;;;11.60;7.88;;;;;;;17.96;68.26;99258.53;2626834;39;20442;-75
2021/08/12 06:16:01;;;;;;;10.35;6.60;;;;;;;17.88;68.13;99269.56;2623636;51;20048;-73
2021/08/12 06:18:32;;;;;;;11.47;6.43;;;;;;;17.71;68.38;99269.34;2621055;47;20050;-74
2021/08/12 06:21:02;;;;;;;8.57;6.55;;;;;;;17.58;69.16;99273.03;2620699;54;20039;-74
2021/08/12 06:23:33;;;;;;;7.57;6.22;;;;;;;17.47;69.27;99265.81;2620785;47;20064;-74
2021/08/12 06:26:04;;;;;;;7.07;5.88;;;;;;;17.47;69.54;99273.81;2621116;39;20411;-73
2021/08/12 06:28:35;;;;;;;9.40;5.82;;;;;;;17.56;70.04;99266.28;2620651;54;20026;-73
2021/08/12 06:31:05;;;;;;;10.32;5.82;;;;;;;17.58;70.03;99270.34;2620590;54;20569;-73
2021/08/12 06:33:35;;;;;;;9.80;5.78;;;;;;;17.73;69.78;99271.81;2620213;47;20026;-73
2021/08/12 06:36:06;;;;;;;8.00;6.70;;;;;;;17.76;69.46;99271.41;2620661;47;20029;-73
2021/08/12 06:38:37;;;;;;;10.05;7.03;;;;;;;17.82;69.44;99271.28;2620614;54;20577;-74
2021/08/12 06:41:08;;;;;;;8.52;6.10;;;;;;;18.00;69.59;99272.25;2623068;47;20031;-75
2021/08/12 06:43:45;;;;;;;11.57;9.32;;;;;;;18.18;69.14;99276.72;2622824;47;20070;-73
2021/08/12 06:46:15;;;;;;;8.27;6.55;;;;;;;18.17;69.29;99269.75;2619522;47;20027;-72
2021/08/12 06:48:45;;;;;;;7.38;5.43;;;;;;;18.30;68.71;99273.00;2621401;39;20470;-73
2021/08/12 06:51:33;;;;;;;8.63;6.38;;;;;;;18.46;68.82;99270.72;2620090;54;20023;-73
2021/08/12 06:54:05;;;;;;;8.43;6.15;;;;;;;18.60;67.96;99269.41;2619750;47;20074;-72
2021/08/12 06:56:36;;;;;;;6.35;5.38;;;;;;;18.66;68.10;99262.31;2619652;47;20050;-74
2021/08/12 06:59:07;;;;;;;6.32;5.43;;;;;;;18.77;67.77;99266.88;2620485;31;20536;-74
2021/08/12 07:01:37;;;;;;;7.97;6.65;;;;;;;18.86;67.43;99265.47;2618886;47;20535;-74
2021/08/12 07:04:07;;;;;;;8.18;5.70;;;;;;;18.84;67.45;99256.84;2619589;51;20082;-73
2021/08/12 07:06:38;;;;;;;6.78;5.70;;;;;;;18.91;66.85;99260.22;2619903;47;20026;-73
2021/08/12 07:09:12;;;;;;;8.05;5.78;;;;;;;19.05;66.42;99260.78;2620255;39;20426;-71
2021/08/12 07:11:41;;;;;;;6.95;5.32;;;;;;;19.12;66.97;99263.31;2620010;54;20151;-72
2021/08/12 07:14:11;;;;;;;7.10;5.32;;;;;;;19.29;66.39;99261.53;2620455;54;20110;-71
2021/08/12 07:16:41;;;;;;;8.68;6.13;;;;;;;19.42;65.62;99265.78;2618506;47;20041;-70
2021/08/12 07:19:11;;;;;;;9.75;7.18;;;;;;;19.43;65.14;99262.06;2619842;47;20046;-72
2021/08/12 07:21:44;;;;;;;7.43;5.70;;;;;;;19.45;65.47;99268.00;2620485;54;20032;-71
2021/08/12 07:24:16;;;;;;;9.48;5.50;;;;;;;19.55;65.65;99265.50;2621055;46;20033;-70
2021/08/12 07:26:47;;;;;;;6.80;5.80;;;;;;;19.73;65.27;99268.03;2620541;54;20054;-72
2021/08/12 07:29:17;;;;;;;6.47;5.70;;;;;;;19.78;65.02;99261.94;2620574;46;20030;-71
2021/08/12 07:31:47;;;;;;;22.33;17.52;;;;;;;19.91;64.89;99269.66;2620757;54;20030;-70
2021/08/12 07:34:17;;;;;;;7.10;5.93;;;;;;;20.01;64.11;99261.00;2620326;54;20054;-70
2021/08/12 07:36:47;;;;;;;13.65;11.80;;;;;;;20.10;63.98;99259.53;2619001;47;20121;-70
2021/08/12 07:39:18;;;;;;;9.52;7.05;;;;;;;20.22;63.74;99265.63;2619363;46;20022;-71
2021/08/12 07:41:48;;;;;;;13.35;7.43;;;;;;;20.34;63.71;99260.19;2619992;54;20054;-72
2021/08/12 07:44:18;;;;;;;8.98;6.80;;;;;;;20.40;63.28;99256.50;2620796;54;20554;-71
2021/08/12 07:46:48;;;;;;;8.15;5.50;;;;;;;20.45;63.89;99256.59;2621103;47;20082;-71
2021/08/12 07:49:17;;;;;;;8.38;6.03;;;;;;;20.68;63.00;99252.13;2623945;54;20538;-71
2021/08/12 07:51:47;;;;;;;5.85;5.20;;;;;;;20.73;62.34;99252.16;2624016;54;20066;-70
2021/08/12 07:54:19;;;;;;;6.07;5.35;;;;;;;20.80;62.56;99249.31;2623898;39;20399;-71
2021/08/12 07:56:49;;;;;;;7.70;6.00;;;;;;;20.94;61.63;99253.25;2624455;54;20026;-71
2021/08/12 07:59:18;;;;;;;8.02;5.13;;;;;;;21.01;61.75;99257.38;2624574;54;20034;-71
2021/08/12 08:01:48;;;;;;;6.70;5.45;;;;;;;21.20;62.08;99255.22;2624466;47;20034;-71
2021/08/12 08:04:18;;;;;;;6.60;4.97;;;;;;;21.44;61.76;99253.09;2622918;39;20399;-71
2021/08/12 08:06:47;;;;;;;11.63;7.35;;;;;;;21.58;60.80;99253.50;2624246;47;20034;-71
2021/08/12 08:09:18;;;;;;;10.05;9.05;;;;;;;21.67;60.56;99248.47;2622227;54;20038;-71
2021/08/12 08:11:48;;;;;;;9.23;5.55;;;;;;;21.70;60.21;99248.78;2620769;46;20066;-73
2021/08/12 08:14:18;;;;;;;7.97;5.47;;;;;;;21.78;60.46;99247.50;2621077;47;20049;-72
2021/08/12 08:16:48;;;;;;;8.75;5.68;;;;;;;21.90;60.37;99237.41;2621383;54;20570;-71
2021/08/12 08:19:18;;;;;;;13.15;8.15;;;;;;;22.08;60.04;99240.75;2623019;54;20022;-71
2021/08/12 08:21:48;;;;;;;5.78;4.63;;;;;;;22.18;59.76;99248.97;2623575;47;20023;-72
2021/08/12 08:24:19;;;;;;;9.85;5.68;;;;;;;22.26;59.56;99248.50;2624783;54;20042;-72
2021/08/12 08:26:49;;;;;;;9.35;5.82;;;;;;;22.38;59.24;99249.13;2625907;39;20498;-73
2021/08/12 08:29:19;;;;;;;11.40;10.10;;;;;;;22.53;58.79;99253.78;2624025;54;20035;-73
2021/08/12 08:31:48;;;;;;;9.93;8.07;;;;;;;22.67;58.48;99246.06;2623087;54;20058;-72
2021/08/12 08:34:18;;;;;;;7.70;5.45;;;;;;;22.79;58.40;99246.66;2620155;54;20034;-73
2021/08/12 08:36:47;;;;;;;6.55;4.72;;;;;;;22.88;58.53;99253.19;2619525;54;20041;-73
2021/08/12 08:39:18;;;;;;;8.27;5.47;;;;;;;23.11;57.89;99249.28;2622105;54;20020;-72
2021/08/12 08:41:48;;;;;;;9.15;5.43;;;;;;;23.26;57.17;99247.69;2624048;54;20058;-72
2021/08/12 08:44:20;;;;;;;6.72;5.07;;;;;;;23.36;56.44;99247.75;2624166;54;20561;-73
2021/08/12 08:46:51;;;;;;;7.47;5.25;;;;;;;23.46;56.46;99240.47;2623447;54;20577;-72
2021/08/12 08:49:23;;;;;;;8.98;5.97;;;;;;;23.55;56.41;99245.34;2623993;54;20034;-72
2021/08/12 08:51:53;;;;;;;9.95;6.70;;;;;;;23.77;55.40;99240.56;2624227;54;20030;-72
2021/08/12 08:54:26;;;;;;;5.45;4.80;;;;;;;23.94;55.07;99229.50;2624176;54;20030;-72
2021/08/12 08:56:57;;;;;;;7.60;5.07;;;;;;;24.05;54.65;99233.03;2622550;54;20621;-71
2021/08/12 08:59:29;;;;;;;7.82;5.30;;;;;;;24.07;54.13;99233.56;2623160;54;20023;-72
2021/08/12 09:02:01;;;;;;;6.78;5.65;;;;;;;24.16;53.91;99240.84;2623709;54;20038;-71
2021/08/12 09:04:31;;;;;;;6.60;5.85;;;;;;;24.26;52.56;99231.94;2622946;54;20038;-71
2021/08/12 09:07:00;;;;;;;7.13;5.32;;;;;;;24.31;52.93;99225.72;2623659;54;20031;-71
2021/08/12 09:09:33;;;;;;;5.70;5.15;;;;;;;24.42;51.89;99221.94;2623499;47;20041;-71
2021/08/12 09:12:03;;;;;;;7.75;5.00;;;;;;;24.55;52.05;99220.56;2623143;54;20031;-71
2021/08/12 09:14:36;;;;;;;6.85;5.32;;;;;;;24.73;51.59;99224.56;2624327;54;20553;-72
2021/08/12 09:17:26;;;;;;;5.70;4.43;;;;;;;24.90;51.44;99222.31;2622937;54;20034;-70
2021/08/12 09:20:07;;;;;;;6.95;5.10;;;;;;;25.11;49.74;99218.50;2621123;54;20044;-72
2021/08/12 09:22:52;;;;;;;4.88;4.45;;;;;;;25.27;49.44;99216.53;2621691;54;20050;-70
2021/08/12 09:25:36;;;;;;;7.70;4.28;;;;;;;25.43;48.81;99207.25;2621866;54;20546;-72
2021/08/12 09:28:14;;;;;;;6.13;4.78;;;;;;;25.58;48.24;99213.63;2621032;54;20030;-71
2021/08/12 09:30:45;;;;;;;4.97;4.45;;;;;;;25.75;48.05;99203.19;2620560;54;20031;-71
2021/08/12 09:33:20;;;;;;;7.63;4.80;;;;;;;25.93;47.74;99209.88;2621176;54;20082;-72
2021/08/12 09:35:49;;;;;;;6.72;4.80;;;;;;;26.02;47.74;99208.19;2620386;47;20576;-72
2021/08/12 09:38:19;;;;;;;6.40;4.90;;;;;;;26.14;47.23;99203.19;2621383;54;20101;-72
2021/08/12 09:40:55;;;;;;;5.70;4.57;;;;;;;26.17;47.34;99202.63;2621431;54;20031;-71
2021/08/12 09:43:30;;;;;;;6.90;5.60;;;;;;;26.27;47.13;99200.91;2620382;54;20042;-71
2021/08/12 09:46:00;;;;;;;6.75;4.50;;;;;;;26.34;46.78;99196.75;2620450;54;20621;-71
2021/08/12 09:48:30;;;;;;;10.15;5.68;;;;;;;26.53;46.12;99204.19;2620047;47;20037;-72
2021/08/12 09:51:06;;;;;;;6.05;5.20;;;;;;;26.73;45.63;99203.16;2620232;51;20042;-71
2021/08/12 09:53:36;;;;;;;7.82;6.05;;;;;;;26.79;45.78;99202.81;2620386;54;20146;-71
2021/08/12 09:56:11;;;;;;;6.25;5.65;;;;;;;26.95;45.03;99208.06;2620502;54;20110;-71
2021/08/12 09:58:42;;;;;;;6.72;5.32;;;;;;;26.88;45.41;99206.50;2619512;54;20034;-71
2021/08/12 10:01:19;;;;;;;7.18;6.25;;;;;;;26.99;44.74;99209.91;2619576;54;20042;-71
2021/08/12 10:03:54;;;;;;;8.15;7.32;;;;;;;26.96;44.94;99206.94;2620190;54;20038;-72
2021/08/12 10:06:25;;;;;;;7.18;4.85;;;;;;;27.03;45.06;99207.41;2620347;54;20026;-71
2021/08/12 10:08:54;;;;;;;7.00;5.85;;;;;;;27.11;44.75;99212.22;2619616;54;20558;-72
2021/08/12 10:11:28;;;;;;;5.22;4.65;;;;;;;27.06;44.41;99207.59;2619845;54;20098;-73
2021/08/12 10:14:00;;;;;;;6.95;5.20;;;;;;;27.07;44.90;99203.81;2620495;54;20034;-71
2021/08/12 10:16:31;;;;;;;5.88;4.38;;;;;;;27.16;44.56;99198.56;2620187;54;20051;-71
2021/08/12 10:19:03;;;;;;;6.05;5.55;;;;;;;27.27;44.18;99202.78;2620454;54;20034;-71
2021/08/12 10:21:38;;;;;;;6.85;4.97;;;;;;;27.27;44.10;99204.66;2621272;54;20042;-72
2021/08/12 10:24:10;;;;;;;5.38;4.70;;;;;;;27.14;44.55;99189.91;2622823;54;20034;-71
2021/08/12 10:26:42;;;;;;;5.00;4.50;;;;;;;27.21;44.57;99189.56;2621263;54;20081;-71
2021/08/12 10:29:14;;;;;;;6.13;5.55;;;;;;;27.19;44.13;99187.16;2621485;54;20629;-71
2021/08/12 10:31:47;;;;;;;6.13;5.20;;;;;;;27.29;43.78;99186.97;2621485;54;20048;-71
2021/08/12 10:34:17;;;;;;;6.32;5.70;;;;;;;27.39;44.14;99186.84;2620957;54;20037;-71
2021/08/12 10:36:48;;;;;;;6.30;5.13;;;;;;;27.46;44.39;99177.53;2620486;54;20082;-69
2021/08/12 10:39:21;;;;;;;6.00;5.13;;;;;;;27.54;44.60;99172.22;2620269;54;20077;-68
2021/08/12 10:41:53;;;;;;;5.53;5.03;;;;;;;27.57;44.03;99178.97;2619896;54;20542;-69
2021/08/12 10:44:23;;;;;;;7.50;5.30;;;;;;;27.66;43.23;99169.84;2620316;54;20077;-70
2021/08/12 10:46:53;;;;;;;5.13;4.63;;;;;;;27.73;44.14;99174.13;2619473;54;20685;-70
2021/08/12 10:49:31;;;;;;;8.40;4.70;;;;;;;27.83;43.52;99168.53;2619150;54;20030;-69
2021/08/12 10:52:03;;;;;;;5.60;4.80;;;;;;;27.89;43.02;99170.06;2619490;54;20051;-69
2021/08/12 10:54:34;;;;;;;5.82;4.97;;;;;;;27.93;43.17;99168.38;2619823;54;20070;-70
2021/08/12 10:57:22;;;;;;;5.13;4.43;;;;;;;27.97;42.52;99160.44;2619409;54;20045;-70
2021/08/12 10:59:53;;;;;;;6.63;5.00;;;;;;;28.05;43.10;99162.47;2619709;54;20081;-70
2021/08/12 11:02:47;;;;;;;6.20;5.60;;;;;;;28.10;41.72;99159.66;2619581;54;20610;-70
2021/08/12 11:05:17;;;;;;;9.27;5.15;;;;;;;28.06;41.90;99161.34;2619077;54;20030;-69
2021/08/12 11:07:53;;;;;;;5.45;4.95;;;;;;;28.12;42.16;99162.88;2618974;54;20034;-70
2021/08/12 11:10:23;;;;;;;6.68;5.80;;;;;;;28.24;42.13;99162.38;2618975;47;20027;-71
2021/08/12 11:13:12;;;;;;;7.93;6.93;;;;;;;28.34;41.63;99159.50;2619365;54;20053;-71
2021/08/12 11:16:00;;;;;;;7.50;5.55;;;;;;;28.39;41.34;99162.94;2621529;54;20042;-71
2021/08/12 11:18:46;;;;;;;7.53;5.07;;;;;;;28.45;40.79;99160.91;2621652;54;20053;-71
2021/08/12 11:21:38;;;;;;;7.82;6.05;;;;;;;28.38;41.01;99152.38;2622258;54;20046;-71
2021/08/12 11:24:09;;;;;;;6.35;4.88;;;;;;;28.35;40.73;99150.22;2622371;54;20074;-71
2021/08/12 11:27:08;;;;;;;8.80;5.85;;;;;;;28.39;40.71;99148.53;2620854;47;20051;-70
2021/08/12 11:29:39;;;;;;;5.97;5.10;;;;;;;28.25;40.21;99156.66;2619953;54;20047;-70
2021/08/12 11:32:13;;;;;;;5.13;4.65;;;;;;;28.29;40.24;99154.94;2621323;54;20078;-70
2021/08/12 11:34:56;;;;;;;5.85;5.25;;;;;;;28.26;40.33;99160.19;2620020;54;20042;-70
2021/08/12 11:37:28;;;;;;;7.50;6.80;;;;;;;28.32;40.26;99153.53;2619882;39;20434;-71
2021/08/12 11:40:00;;;;;;;7.93;6.10;;;;;;;28.38;40.39;99155.88;2620070;54;20081;-70
2021/08/12 11:42:34;;;;;;;5.25;4.75;;;;;;;28.35;40.47;99152.94;2619803;54;20077;-71
2021/08/12 11:45:08;;;;;;;6.97;5.30;;;;;;;28.36;40.40;99158.09;2619447;54;20031;-71
2021/08/12 11:47:42;;;;;;;5.38;4.88;;;;;;;28.46;40.48;99151.66;2619353;54;20027;-71
2021/08/12 11:50:15;;;;;;;5.78;4.65;;;;;;;28.60;39.13;99154.38;2618929;54;20034;-71
2021/08/12 11:52:49;;;;;;;5.85;4.72;;;;;;;28.70;39.34;99158.78;2621084;54;20030;-70
2021/08/12 11:55:20;;;;;;;10.15;9.15;;;;;;;28.82;38.67;99149.03;2621755;54;20033;-70